sensor_id;sensor_type;location;lat;lon;timestamp;pressure;altitude;pressure_sealevel;temperature
67829;BMP280;54626;45.436;10.942;2023-07-31T00:01:42;100344.50;;;25.12
67829;BMP280;54626;45.436;10.942;2023-07-31T00:04:09;100346.69;;;25.14
67829;BMP280;54626;45.436;10.942;2023-07-31T00:06:50;100342.41;;;25.13
67829;BMP280;54626;45.436;10.942;2023-07-31T00:09:31;100342.47;;;25.15
67829;BMP280;54626;45.436;10.942;2023-07-31T00:11:57;100348.81;;;25.13
67829;BMP280;54626;45.436;10.942;2023-07-31T00:14:24;100347.03;;;25.04
67829;BMP280;54626;45.436;10.942;2023-07-31T00:17:21;100343.22;;;25.15
67829;BMP280;54626;45.436;10.942;2023-07-31T00:19:50;100356.56;;;25.13
67829;BMP280;54626;45.436;10.942;2023-07-31T00:22:17;100344.75;;;25.18
67829;BMP280;54626;45.436;10.942;2023-07-31T00:24:43;100350.16;;;25.12
67829;BMP280;54626;45.436;10.942;2023-07-31T00:29:35;100351.88;;;25.02
67829;BMP280;54626;45.436;10.942;2023-07-31T00:32:01;100353.34;;;25.03
67829;BMP280;54626;45.436;10.942;2023-07-31T00:35:05;100368.63;;;24.96
67829;BMP280;54626;45.436;10.942;2023-07-31T00:37:39;100370.09;;;24.97
67829;BMP280;54626;45.436;10.942;2023-07-31T00:40:06;100352.88;;;24.91
67829;BMP280;54626;45.436;10.942;2023-07-31T00:42:46;100360.97;;;24.81
67829;BMP280;54626;45.436;10.942;2023-07-31T00:45:13;100362.56;;;24.86
67829;BMP280;54626;45.436;10.942;2023-07-31T00:47:52;100359.56;;;24.82
67829;BMP280;54626;45.436;10.942;2023-07-31T00:56:15;100347.22;;;24.56
67829;BMP280;54626;45.436;10.942;2023-07-31T00:58:42;100354.41;;;24.59
67829;BMP280;54626;45.436;10.942;2023-07-31T01:01:09;100347.22;;;24.56
67829;BMP280;54626;45.436;10.942;2023-07-31T01:03:44;100358.19;;;24.48
67829;BMP280;54626;45.436;10.942;2023-07-31T01:14:04;100362.38;;;24.30
67829;BMP280;54626;45.436;10.942;2023-07-31T01:16:56;100369.00;;;24.36
67829;BMP280;54626;45.436;10.942;2023-07-31T01:19:24;100374.13;;;24.25
67829;BMP280;54626;45.436;10.942;2023-07-31T01:30:59;100369.09;;;24.06
67829;BMP280;54626;45.436;10.942;2023-07-31T01:33:27;100369.84;;;24.06
67829;BMP280;54626;45.436;10.942;2023-07-31T01:35:54;100370.25;;;24.01
67829;BMP280;54626;45.436;10.942;2023-07-31T01:38:21;100360.63;;;23.90
67829;BMP280;54626;45.436;10.942;2023-07-31T01:40:52;100361.09;;;23.85
67829;BMP280;54626;45.436;10.942;2023-07-31T01:43:20;100354.22;;;23.90
67829;BMP280;54626;45.436;10.942;2023-07-31T01:45:46;100353.53;;;23.89
67829;BMP280;54626;45.436;10.942;2023-07-31T01:48:16;100351.25;;;23.86
67829;BMP280;54626;45.436;10.942;2023-07-31T01:50:42;100343.25;;;23.81
67829;BMP280;54626;45.436;10.942;2023-07-31T01:53:24;100339.78;;;23.82
67829;BMP280;54626;45.436;10.942;2023-07-31T01:55:50;100330.69;;;23.68
67829;BMP280;54626;45.436;10.942;2023-07-31T01:58:17;100345.91;;;23.61
67829;BMP280;54626;45.436;10.942;2023-07-31T02:01:14;100337.25;;;23.57
67829;BMP280;54626;45.436;10.942;2023-07-31T02:03:53;100346.72;;;23.64
67829;BMP280;54626;45.436;10.942;2023-07-31T02:06:20;100331.25;;;23.65
67829;BMP280;54626;45.436;10.942;2023-07-31T02:12:21;100333.50;;;23.53
67829;BMP280;54626;45.436;10.942;2023-07-31T02:14:56;100339.81;;;23.51
67829;BMP280;54626;45.436;10.942;2023-07-31T02:17:23;100339.50;;;23.45
67829;BMP280;54626;45.436;10.942;2023-07-31T02:32:41;100340.38;;;23.48
67829;BMP280;54626;45.436;10.942;2023-07-31T02:35:08;100335.13;;;23.42
67829;BMP280;54626;45.436;10.942;2023-07-31T02:37:34;100333.41;;;23.35
67829;BMP280;54626;45.436;10.942;2023-07-31T02:40:01;100326.84;;;23.31
67829;BMP280;54626;45.436;10.942;2023-07-31T02:42:28;100330.22;;;23.28
67829;BMP280;54626;45.436;10.942;2023-07-31T02:44:54;100325.94;;;23.27
67829;BMP280;54626;45.436;10.942;2023-07-31T02:47:37;100323.38;;;23.17
67829;BMP280;54626;45.436;10.942;2023-07-31T02:50:25;100326.22;;;23.17
67829;BMP280;54626;45.436;10.942;2023-07-31T02:55:45;100331.66;;;23.13
67829;BMP280;54626;45.436;10.942;2023-07-31T02:58:11;100329.16;;;23.06
67829;BMP280;54626;45.436;10.942;2023-07-31T03:00:42;100326.91;;;23.02
67829;BMP280;54626;45.436;10.942;2023-07-31T03:03:09;100336.56;;;22.97
67829;BMP280;54626;45.436;10.942;2023-07-31T03:05:35;100337.28;;;22.98
67829;BMP280;54626;45.436;10.942;2023-07-31T03:11:40;100338.81;;;23.01
67829;BMP280;54626;45.436;10.942;2023-07-31T03:14:07;100340.09;;;22.98
67829;BMP280;54626;45.436;10.942;2023-07-31T03:16:34;100335.00;;;22.94
67829;BMP280;54626;45.436;10.942;2023-07-31T03:19:00;100338.44;;;22.93
67829;BMP280;54626;45.436;10.942;2023-07-31T03:21:27;100344.16;;;22.95
67829;BMP280;54626;45.436;10.942;2023-07-31T03:23:54;100341.19;;;22.91
67829;BMP280;54626;45.436;10.942;2023-07-31T03:26:22;100347.66;;;22.93
67829;BMP280;54626;45.436;10.942;2023-07-31T03:28:49;100339.72;;;22.90
67829;BMP280;54626;45.436;10.942;2023-07-31T03:31:16;100355.28;;;22.91
67829;BMP280;54626;45.436;10.942;2023-07-31T03:33:42;100347.66;;;22.93
67829;BMP280;54626;45.436;10.942;2023-07-31T03:36:09;100348.78;;;22.88
67829;BMP280;54626;45.436;10.942;2023-07-31T03:38:35;100346.81;;;22.91
67829;BMP280;54626;45.436;10.942;2023-07-31T03:41:02;100347.47;;;22.89
67829;BMP280;54626;45.436;10.942;2023-07-31T03:43:28;100351.28;;;22.96
67829;BMP280;54626;45.436;10.942;2023-07-31T03:45:55;100351.06;;;22.92
67829;BMP280;54626;45.436;10.942;2023-07-31T03:48:22;100348.44;;;22.96
67829;BMP280;54626;45.436;10.942;2023-07-31T03:50:49;100349.00;;;22.92
67829;BMP280;54626;45.436;10.942;2023-07-31T03:53:15;100353.19;;;22.91
67829;BMP280;54626;45.436;10.942;2023-07-31T03:55:42;100348.06;;;22.88
67829;BMP280;54626;45.436;10.942;2023-07-31T03:58:08;100338.53;;;22.95
67829;BMP280;54626;45.436;10.942;2023-07-31T04:00:37;100346.72;;;22.89
67829;BMP280;54626;45.436;10.942;2023-07-31T04:03:04;100340.88;;;22.85
67829;BMP280;54626;45.436;10.942;2023-07-31T04:05:32;100342.22;;;22.84
67829;BMP280;54626;45.436;10.942;2023-07-31T04:07:58;100343.00;;;22.71
67829;BMP280;54626;45.436;10.942;2023-07-31T04:10:25;100343.22;;;22.75
67829;BMP280;54626;45.436;10.942;2023-07-31T04:12:52;100337.97;;;22.83
67829;BMP280;54626;45.436;10.942;2023-07-31T04:15:18;100338.63;;;22.97
67829;BMP280;54626;45.436;10.942;2023-07-31T04:17:45;100340.28;;;23.02
67829;BMP280;54626;45.436;10.942;2023-07-31T04:20:11;100346.66;;;23.02
67829;BMP280;54626;45.436;10.942;2023-07-31T04:22:38;100343.19;;;23.04
67829;BMP280;54626;45.436;10.942;2023-07-31T04:25:05;100348.50;;;23.11
67829;BMP280;54626;45.436;10.942;2023-07-31T04:27:32;100354.34;;;23.15
67829;BMP280;54626;45.436;10.942;2023-07-31T04:29:58;100352.31;;;23.18
67829;BMP280;54626;45.436;10.942;2023-07-31T04:32:25;100352.53;;;23.22
67829;BMP280;54626;45.436;10.942;2023-07-31T04:34:51;100351.44;;;23.29
67829;BMP280;54626;45.436;10.942;2023-07-31T04:37:18;100353.88;;;23.21
67829;BMP280;54626;45.436;10.942;2023-07-31T04:43:08;100354.34;;;23.30
67829;BMP280;54626;45.436;10.942;2023-07-31T04:45:53;100360.56;;;23.42
67829;BMP280;54626;45.436;10.942;2023-07-31T04:48:20;100357.91;;;23.31
67829;BMP280;54626;45.436;10.942;2023-07-31T04:50:46;100354.72;;;23.38
67829;BMP280;54626;45.436;10.942;2023-07-31T05:03:37;100350.28;;;23.49
67829;BMP280;54626;45.436;10.942;2023-07-31T05:06:04;100354.28;;;23.44
67829;BMP280;54626;45.436;10.942;2023-07-31T05:08:33;100353.91;;;23.51
67829;BMP280;54626;45.436;10.942;2023-07-31T05:11:07;100350.00;;;23.58
67829;BMP280;54626;45.436;10.942;2023-07-31T05:13:33;100346.66;;;23.62
67829;BMP280;54626;45.436;10.942;2023-07-31T05:16:00;100348.25;;;23.67
67829;BMP280;54626;45.436;10.942;2023-07-31T05:18:28;100352.38;;;23.79
67829;BMP280;54626;45.436;10.942;2023-07-31T05:20:55;100353.25;;;23.83
67829;BMP280;54626;45.436;10.942;2023-07-31T05:23:22;100361.53;;;23.95
67829;BMP280;54626;45.436;10.942;2023-07-31T05:25:51;100362.06;;;24.07
67829;BMP280;54626;45.436;10.942;2023-07-31T05:28:17;100364.78;;;24.05
67829;BMP280;54626;45.436;10.942;2023-07-31T05:30:44;100359.13;;;24.05
67829;BMP280;54626;45.436;10.942;2023-07-31T05:33:10;100380.22;;;24.17
67829;BMP280;54626;45.436;10.942;2023-07-31T05:35:40;100375.25;;;24.18
67829;BMP280;54626;45.436;10.942;2023-07-31T05:38:07;100370.69;;;24.26
67829;BMP280;54626;45.436;10.942;2023-07-31T05:40:33;100364.13;;;24.22
67829;BMP280;54626;45.436;10.942;2023-07-31T05:43:00;100368.75;;;24.31
67829;BMP280;54626;45.436;10.942;2023-07-31T05:45:27;100365.41;;;24.19
67829;BMP280;54626;45.436;10.942;2023-07-31T05:47:56;100373.28;;;24.20
67829;BMP280;54626;45.436;10.942;2023-07-31T05:50:23;100364.78;;;24.20
67829;BMP280;54626;45.436;10.942;2023-07-31T05:52:49;100369.44;;;24.14
67829;BMP280;54626;45.436;10.942;2023-07-31T05:55:16;100377.13;;;24.29
67829;BMP280;54626;45.436;10.942;2023-07-31T05:57:43;100377.38;;;24.34
67829;BMP280;54626;45.436;10.942;2023-07-31T06:00:21;100381.22;;;24.41
67829;BMP280;54626;45.436;10.942;2023-07-31T06:02:48;100372.41;;;24.50
67829;BMP280;54626;45.436;10.942;2023-07-31T06:05:15;100379.28;;;24.45
67829;BMP280;54626;45.436;10.942;2023-07-31T06:07:41;100374.03;;;24.55
67829;BMP280;54626;45.436;10.942;2023-07-31T06:10:08;100388.59;;;24.65
67829;BMP280;54626;45.436;10.942;2023-07-31T06:12:35;100391.59;;;24.69
67829;BMP280;54626;45.436;10.942;2023-07-31T06:15:03;100386.56;;;24.85
67829;BMP280;54626;45.436;10.942;2023-07-31T06:17:33;100383.84;;;24.87
67829;BMP280;54626;45.436;10.942;2023-07-31T06:19:59;100384.31;;;24.99
67829;BMP280;54626;45.436;10.942;2023-07-31T06:22:26;100389.41;;;25.20
67829;BMP280;54626;45.436;10.942;2023-07-31T06:24:53;100397.03;;;25.35
67829;BMP280;54626;45.436;10.942;2023-07-31T06:27:19;100397.84;;;25.54
67829;BMP280;54626;45.436;10.942;2023-07-31T06:29:46;100400.16;;;25.60
67829;BMP280;54626;45.436;10.942;2023-07-31T06:32:12;100397.63;;;25.87
67829;BMP280;54626;45.436;10.942;2023-07-31T06:37:56;100404.03;;;26.07
67829;BMP280;54626;45.436;10.942;2023-07-31T06:40:23;100398.56;;;26.13
67829;BMP280;54626;45.436;10.942;2023-07-31T06:42:49;100405.69;;;26.14
67829;BMP280;54626;45.436;10.942;2023-07-31T06:48:04;100401.75;;;26.23
67829;BMP280;54626;45.436;10.942;2023-07-31T06:58:31;100397.34;;;26.82
67829;BMP280;54626;45.436;10.942;2023-07-31T07:04:38;100405.53;;;27.39
67829;BMP280;54626;45.436;10.942;2023-07-31T07:07:05;100403.34;;;27.61
67829;BMP280;54626;45.436;10.942;2023-07-31T07:12:55;100411.06;;;28.64
67829;BMP280;54626;45.436;10.942;2023-07-31T07:15:22;100397.03;;;28.74
67829;BMP280;54626;45.436;10.942;2023-07-31T07:17:48;100405.00;;;28.50
67829;BMP280;54626;45.436;10.942;2023-07-31T07:23:26;100411.84;;;28.39
67829;BMP280;54626;45.436;10.942;2023-07-31T07:25:53;100416.88;;;28.40
67829;BMP280;54626;45.436;10.942;2023-07-31T07:28:19;100419.91;;;28.48
67829;BMP280;54626;45.436;10.942;2023-07-31T07:30:51;100418.53;;;28.49
67829;BMP280;54626;45.436;10.942;2023-07-31T07:33:19;100419.88;;;28.46
67829;BMP280;54626;45.436;10.942;2023-07-31T07:38:14;100411.50;;;28.54
67829;BMP280;54626;45.436;10.942;2023-07-31T07:40:41;100409.09;;;28.72
67829;BMP280;54626;45.436;10.942;2023-07-31T07:45:54;100405.63;;;28.76
67829;BMP280;54626;45.436;10.942;2023-07-31T07:55:30;100397.88;;;29.09
67829;BMP280;54626;45.436;10.942;2023-07-31T07:58:32;100400.41;;;29.28
67829;BMP280;54626;45.436;10.942;2023-07-31T08:00:58;100403.16;;;29.24
67829;BMP280;54626;45.436;10.942;2023-07-31T08:03:26;100409.13;;;29.03
67829;BMP280;54626;45.436;10.942;2023-07-31T08:09:08;100401.81;;;28.65
67829;BMP280;54626;45.436;10.942;2023-07-31T08:14:57;100391.28;;;29.03
67829;BMP280;54626;45.436;10.942;2023-07-31T08:21:25;100399.84;;;29.36
67829;BMP280;54626;45.436;10.942;2023-07-31T08:26:27;100403.91;;;28.63
67829;BMP280;54626;45.436;10.942;2023-07-31T08:28:53;100418.22;;;28.37
67829;BMP280;54626;45.436;10.942;2023-07-31T08:31:20;100408.09;;;28.32
67829;BMP280;54626;45.436;10.942;2023-07-31T08:34:23;100416.00;;;28.34
67829;BMP280;54626;45.436;10.942;2023-07-31T08:42:49;100420.25;;;28.62
67829;BMP280;54626;45.436;10.942;2023-07-31T08:45:28;100411.97;;;28.72
67829;BMP280;54626;45.436;10.942;2023-07-31T08:47:56;100422.03;;;28.77
67829;BMP280;54626;45.436;10.942;2023-07-31T08:50:23;100409.31;;;28.82
67829;BMP280;54626;45.436;10.942;2023-07-31T08:55:53;100414.28;;;29.13
67829;BMP280;54626;45.436;10.942;2023-07-31T09:02:08;100406.78;;;28.96
67829;BMP280;54626;45.436;10.942;2023-07-31T09:04:35;100405.75;;;29.13
67829;BMP280;54626;45.436;10.942;2023-07-31T09:07:23;100401.06;;;29.25
67829;BMP280;54626;45.436;10.942;2023-07-31T09:09:50;100395.03;;;29.44
67829;BMP280;54626;45.436;10.942;2023-07-31T09:12:17;100390.69;;;29.76
67829;BMP280;54626;45.436;10.942;2023-07-31T09:14:45;100400.03;;;29.81
67829;BMP280;54626;45.436;10.942;2023-07-31T09:17:12;100379.03;;;29.63
67829;BMP280;54626;45.436;10.942;2023-07-31T09:19:40;100390.06;;;29.82
67829;BMP280;54626;45.436;10.942;2023-07-31T09:25:53;100385.66;;;29.75
67829;BMP280;54626;45.436;10.942;2023-07-31T09:28:20;100385.75;;;29.81
67829;BMP280;54626;45.436;10.942;2023-07-31T09:33:15;100376.31;;;30.10
67829;BMP280;54626;45.436;10.942;2023-07-31T09:35:43;100364.56;;;29.92
67829;BMP280;54626;45.436;10.942;2023-07-31T09:38:11;100369.66;;;29.97
67829;BMP280;54626;45.436;10.942;2023-07-31T09:40:58;100363.03;;;29.85
67829;BMP280;54626;45.436;10.942;2023-07-31T09:43:25;100375.69;;;30.15
67829;BMP280;54626;45.436;10.942;2023-07-31T09:45:55;100378.50;;;30.13
67829;BMP280;54626;45.436;10.942;2023-07-31T09:48:23;100367.38;;;30.29
67829;BMP280;54626;45.436;10.942;2023-07-31T09:50:53;100378.34;;;30.48
67829;BMP280;54626;45.436;10.942;2023-07-31T09:55:45;100364.91;;;30.12
67829;BMP280;54626;45.436;10.942;2023-07-31T09:58:12;100375.22;;;30.30
67829;BMP280;54626;45.436;10.942;2023-07-31T10:00:42;100373.19;;;30.37
67829;BMP280;54626;45.436;10.942;2023-07-31T10:03:10;100378.22;;;30.40
67829;BMP280;54626;45.436;10.942;2023-07-31T10:05:45;100368.78;;;30.28
67829;BMP280;54626;45.436;10.942;2023-07-31T10:08:15;100371.91;;;30.46
67829;BMP280;54626;45.436;10.942;2023-07-31T10:11:01;100368.84;;;30.79
67829;BMP280;54626;45.436;10.942;2023-07-31T10:13:33;100364.06;;;30.48
67829;BMP280;54626;45.436;10.942;2023-07-31T10:16:03;100360.78;;;30.65
67829;BMP280;54626;45.436;10.942;2023-07-31T10:18:29;100366.16;;;30.91
67829;BMP280;54626;45.436;10.942;2023-07-31T10:20:57;100360.38;;;30.89
67829;BMP280;54626;45.436;10.942;2023-07-31T10:25:53;100358.56;;;31.13
67829;BMP280;54626;45.436;10.942;2023-07-31T10:31:46;100358.53;;;31.11
67829;BMP280;54626;45.436;10.942;2023-07-31T10:34:14;100352.59;;;30.93
67829;BMP280;54626;45.436;10.942;2023-07-31T10:36:40;100361.38;;;31.11
67829;BMP280;54626;45.436;10.942;2023-07-31T10:39:37;100352.69;;;31.01
67829;BMP280;54626;45.436;10.942;2023-07-31T10:46:06;100354.34;;;31.20
67829;BMP280;54626;45.436;10.942;2023-07-31T10:48:34;100352.28;;;31.24
67829;BMP280;54626;45.436;10.942;2023-07-31T10:54:13;100347.84;;;31.13
67829;BMP280;54626;45.436;10.942;2023-07-31T10:56:50;100343.72;;;31.28
67829;BMP280;54626;45.436;10.942;2023-07-31T10:59:16;100349.66;;;31.46
67829;BMP280;54626;45.436;10.942;2023-07-31T11:08:32;100348.38;;;31.59
67829;BMP280;54626;45.436;10.942;2023-07-31T11:11:24;100356.97;;;31.61
67829;BMP280;54626;45.436;10.942;2023-07-31T11:14:05;100357.75;;;31.71
67829;BMP280;54626;45.436;10.942;2023-07-31T11:16:31;100354.75;;;31.57
67829;BMP280;54626;45.436;10.942;2023-07-31T11:18:58;100362.06;;;31.72
67829;BMP280;54626;45.436;10.942;2023-07-31T11:30:48;100346.56;;;31.99
67829;BMP280;54626;45.436;10.942;2023-07-31T11:33:16;100337.25;;;31.98
67829;BMP280;54626;45.436;10.942;2023-07-31T11:35:47;100337.38;;;32.14
67829;BMP280;54626;45.436;10.942;2023-07-31T11:38:25;100333.34;;;32.53
67829;BMP280;54626;45.436;10.942;2023-07-31T12:00:56;100319.25;;;33.06
67829;BMP280;54626;45.436;10.942;2023-07-31T12:14:04;100292.78;;;33.85
67829;BMP280;54626;45.436;10.942;2023-07-31T12:16:30;100292.78;;;33.53
67829;BMP280;54626;45.436;10.942;2023-07-31T12:18:58;100289.91;;;33.57
67829;BMP280;54626;45.436;10.942;2023-07-31T12:21:27;100289.91;;;33.59
67829;BMP280;54626;45.436;10.942;2023-07-31T12:23:53;100291.34;;;33.62
67829;BMP280;54626;45.436;10.942;2023-07-31T12:26:24;100281.28;;;33.97
67829;BMP280;54626;45.436;10.942;2023-07-31T12:34:42;100264.06;;;33.59
67829;BMP280;54626;45.436;10.942;2023-07-31T12:37:09;100266.16;;;34.04
67829;BMP280;54626;45.436;10.942;2023-07-31T12:39:36;100259.75;;;33.98
67829;BMP280;54626;45.436;10.942;2023-07-31T12:48:18;100249.63;;;34.10
67829;BMP280;54626;45.436;10.942;2023-07-31T12:50:44;100251.78;;;34.12
67829;BMP280;54626;45.436;10.942;2023-07-31T12:53:11;100246.00;;;34.18
67829;BMP280;54626;45.436;10.942;2023-07-31T12:55:37;100253.91;;;34.23
67829;BMP280;54626;45.436;10.942;2023-07-31T12:58:13;100239.63;;;33.98
67829;BMP280;54626;45.436;10.942;2023-07-31T13:00:39;100230.22;;;34.19
67829;BMP280;54626;45.436;10.942;2023-07-31T13:03:06;100243.88;;;34.18
67829;BMP280;54626;45.436;10.942;2023-07-31T13:05:32;100235.19;;;34.34
67829;BMP280;54626;45.436;10.942;2023-07-31T13:10:27;100227.06;;;34.72
67829;BMP280;54626;45.436;10.942;2023-07-31T13:15:20;100215.47;;;34.88
67829;BMP280;54626;45.436;10.942;2023-07-31T13:17:46;100215.47;;;34.90
67829;BMP280;54626;45.436;10.942;2023-07-31T13:20:19;100223.50;;;34.72
67829;BMP280;54626;45.436;10.942;2023-07-31T13:22:45;100208.34;;;34.81
67829;BMP280;54626;45.436;10.942;2023-07-31T13:25:13;100211.25;;;34.75
67829;BMP280;54626;45.436;10.942;2023-07-31T13:27:39;100206.00;;;35.05
67829;BMP280;54626;45.436;10.942;2023-07-31T13:30:06;100205.34;;;34.95
67829;BMP280;54626;45.436;10.942;2023-07-31T13:32:33;100199.53;;;35.01
67829;BMP280;54626;45.436;10.942;2023-07-31T13:35:00;100199.28;;;35.32
67829;BMP280;54626;45.436;10.942;2023-07-31T13:37:27;100191.47;;;35.23
67829;BMP280;54626;45.436;10.942;2023-07-31T13:42:21;100195.41;;;34.78
67829;BMP280;54626;45.436;10.942;2023-07-31T13:44:54;100192.28;;;35.08
67829;BMP280;54626;45.436;10.942;2023-07-31T13:47:46;100187.88;;;35.21
67829;BMP280;54626;45.436;10.942;2023-07-31T13:50:21;100191.63;;;35.03
67829;BMP280;54626;45.436;10.942;2023-07-31T13:52:49;100191.81;;;34.78
67829;BMP280;54626;45.436;10.942;2023-07-31T13:55:15;100195.72;;;34.23
67829;BMP280;54626;45.436;10.942;2023-07-31T13:57:42;100195.19;;;33.55
67829;BMP280;54626;45.436;10.942;2023-07-31T14:00:09;100183.69;;;32.98
67829;BMP280;54626;45.436;10.942;2023-07-31T14:02:45;100184.44;;;33.08
67829;BMP280;54626;45.436;10.942;2023-07-31T14:05:12;100187.25;;;33.73
67829;BMP280;54626;45.436;10.942;2023-07-31T14:07:38;100176.94;;;34.42
67829;BMP280;54626;45.436;10.942;2023-07-31T14:10:08;100181.78;;;34.77
67829;BMP280;54626;45.436;10.942;2023-07-31T14:12:34;100181.09;;;34.66
67829;BMP280;54626;45.436;10.942;2023-07-31T14:15:08;100188.06;;;34.99
67829;BMP280;54626;45.436;10.942;2023-07-31T14:17:35;100176.44;;;35.11
67829;BMP280;54626;45.436;10.942;2023-07-31T14:20:02;100172.44;;;34.70
67829;BMP280;54626;45.436;10.942;2023-07-31T14:22:30;100173.50;;;35.21
67829;BMP280;54626;45.436;10.942;2023-07-31T14:24:57;100173.13;;;35.60
67829;BMP280;54626;45.436;10.942;2023-07-31T14:27:23;100173.94;;;35.49
67829;BMP280;54626;45.436;10.942;2023-07-31T14:29:50;100168.16;;;35.51
67829;BMP280;54626;45.436;10.942;2023-07-31T14:32:16;100165.94;;;35.59
67829;BMP280;54626;45.436;10.942;2023-07-31T14:34:46;100173.25;;;35.46
67829;BMP280;54626;45.436;10.942;2023-07-31T14:37:13;100169.44;;;35.68
67829;BMP280;54626;45.436;10.942;2023-07-31T14:39:40;100170.25;;;35.56
67829;BMP280;54626;45.436;10.942;2023-07-31T14:42:07;100164.78;;;35.94
67829;BMP280;54626;45.436;10.942;2023-07-31T14:44:34;100167.22;;;35.70
67829;BMP280;54626;45.436;10.942;2023-07-31T14:47:00;100165.03;;;35.74
67829;BMP280;54626;45.436;10.942;2023-07-31T14:49:30;100160.25;;;35.49
67829;BMP280;54626;45.436;10.942;2023-07-31T14:51:57;100153.22;;;35.34
67829;BMP280;54626;45.436;10.942;2023-07-31T14:54:24;100156.56;;;35.59
67829;BMP280;54626;45.436;10.942;2023-07-31T14:56:51;100163.09;;;35.53
67829;BMP280;54626;45.436;10.942;2023-07-31T14:59:18;100161.53;;;35.66
67829;BMP280;54626;45.436;10.942;2023-07-31T15:01:52;100163.84;;;35.50
67829;BMP280;54626;45.436;10.942;2023-07-31T15:04:19;100154.59;;;35.39
67829;BMP280;54626;45.436;10.942;2023-07-31T15:06:45;100161.56;;;35.62
67829;BMP280;54626;45.436;10.942;2023-07-31T15:09:12;100154.00;;;35.27
67829;BMP280;54626;45.436;10.942;2023-07-31T15:11:38;100155.91;;;35.50
67829;BMP280;54626;45.436;10.942;2023-07-31T15:14:05;100151.56;;;35.53
67829;BMP280;54626;45.436;10.942;2023-07-31T15:16:32;100146.00;;;35.35
67829;BMP280;54626;45.436;10.942;2023-07-31T15:18:59;100144.22;;;35.68
67829;BMP280;54626;45.436;10.942;2023-07-31T15:21:25;100150.84;;;36.14
67829;BMP280;54626;45.436;10.942;2023-07-31T15:23:52;100144.91;;;36.26
67829;BMP280;54626;45.436;10.942;2023-07-31T15:26:19;100139.59;;;35.95
67829;BMP280;54626;45.436;10.942;2023-07-31T15:28:50;100139.31;;;35.57
67829;BMP280;54626;45.436;10.942;2023-07-31T15:31:21;100132.22;;;35.48
67829;BMP280;54626;45.436;10.942;2023-07-31T15:33:48;100126.69;;;34.35
67829;BMP280;54626;45.436;10.942;2023-07-31T15:36:16;100129.06;;;35.02
67829;BMP280;54626;45.436;10.942;2023-07-31T15:38:43;100127.66;;;34.99
67829;BMP280;54626;45.436;10.942;2023-07-31T15:41:19;100126.91;;;35.04
67829;BMP280;54626;45.436;10.942;2023-07-31T15:43:47;100117.81;;;34.70
67829;BMP280;54626;45.436;10.942;2023-07-31T15:46:14;100119.34;;;34.59
67829;BMP280;54626;45.436;10.942;2023-07-31T15:48:41;100117.97;;;34.52
67829;BMP280;54626;45.436;10.942;2023-07-31T15:51:08;100109.34;;;34.52
67829;BMP280;54626;45.436;10.942;2023-07-31T15:53:35;100110.88;;;34.38
67829;BMP280;54626;45.436;10.942;2023-07-31T15:56:01;100108.88;;;34.14
67829;BMP280;54626;45.436;10.942;2023-07-31T15:58:28;100116.44;;;34.61
67829;BMP280;54626;45.436;10.942;2023-07-31T16:00:55;100112.25;;;34.46
67829;BMP280;54626;45.436;10.942;2023-07-31T16:03:22;100109.47;;;34.33
67829;BMP280;54626;45.436;10.942;2023-07-31T16:06:03;100100.19;;;34.22
67829;BMP280;54626;45.436;10.942;2023-07-31T16:08:30;100096.81;;;33.76
67829;BMP280;54626;45.436;10.942;2023-07-31T16:10:56;100106.16;;;33.77
67829;BMP280;54626;45.436;10.942;2023-07-31T16:13:23;100099.75;;;33.63
67829;BMP280;54626;45.436;10.942;2023-07-31T16:15:49;100095.50;;;33.32
67829;BMP280;54626;45.436;10.942;2023-07-31T16:18:16;100094.84;;;33.06
67829;BMP280;54626;45.436;10.942;2023-07-31T16:20:43;100096.94;;;33.39
67829;BMP280;54626;45.436;10.942;2023-07-31T16:23:09;100101.19;;;33.52
67829;BMP280;54626;45.436;10.942;2023-07-31T16:25:36;100099.06;;;33.56
67829;BMP280;54626;45.436;10.942;2023-07-31T16:28:06;100094.06;;;33.49
67829;BMP280;54626;45.436;10.942;2023-07-31T16:30:33;100100.50;;;33.49
67829;BMP280;54626;45.436;10.942;2023-07-31T16:32:59;100094.09;;;33.19
67829;BMP280;54626;45.436;10.942;2023-07-31T16:35:26;100099.16;;;33.09
67829;BMP280;54626;45.436;10.942;2023-07-31T16:37:56;100102.72;;;32.83
67829;BMP280;54626;45.436;10.942;2023-07-31T16:40:22;100094.06;;;32.50
67829;BMP280;54626;45.436;10.942;2023-07-31T16:42:49;100086.88;;;32.35
67829;BMP280;54626;45.436;10.942;2023-07-31T16:45:18;100091.19;;;32.40
67829;BMP280;54626;45.436;10.942;2023-07-31T16:47:45;100095.50;;;32.45
67829;BMP280;54626;45.436;10.942;2023-07-31T16:50:11;100099.81;;;32.58
67829;BMP280;54626;45.436;10.942;2023-07-31T16:52:38;100099.81;;;32.58
67829;BMP280;54626;45.436;10.942;2023-07-31T16:55:05;100096.22;;;32.61
67829;BMP280;54626;45.436;10.942;2023-07-31T16:57:54;100102.69;;;32.56
67829;BMP280;54626;45.436;10.942;2023-07-31T17:00:22;100094.06;;;32.52
67829;BMP280;54626;45.436;10.942;2023-07-31T17:02:54;100095.44;;;32.21
67829;BMP280;54626;45.436;10.942;2023-07-31T17:05:22;100094.50;;;31.73
67829;BMP280;54626;45.436;10.942;2023-07-31T17:07:48;100093.81;;;31.79
67829;BMP280;54626;45.436;10.942;2023-07-31T17:10:15;100096.63;;;31.67
67829;BMP280;54626;45.436;10.942;2023-07-31T17:12:59;100087.13;;;31.39
67829;BMP280;54626;45.436;10.942;2023-07-31T17:15:42;100098.50;;;31.25
67829;BMP280;54626;45.436;10.942;2023-07-31T17:18:10;100091.25;;;31.16
67829;BMP280;54626;45.436;10.942;2023-07-31T17:20:37;100099.16;;;31.19
67829;BMP280;54626;45.436;10.942;2023-07-31T17:23:03;100087.69;;;31.17
67829;BMP280;54626;45.436;10.942;2023-07-31T17:29:15;100106.84;;;30.99
67829;BMP280;54626;45.436;10.942;2023-07-31T17:31:44;100098.25;;;30.97